createdAt,value
2019-02-20T00:01:37.957Z,72.84
2019-02-20T00:04:08.953Z,72.96
2019-02-20T00:06:39.938Z,72.83
2019-02-20T00:09:10.845Z,72.73
2019-02-20T00:11:41.856Z,72.80
2019-02-20T00:14:12.750Z,72.60
2019-02-20T00:16:43.785Z,72.75
2019-02-20T00:19:14.687Z,72.85
2019-02-20T00:21:45.610Z,72.88
2019-02-20T00:24:16.500Z,72.84
2019-02-20T00:26:47.495Z,72.94
2019-02-20T00:29:18.389Z,72.88
2019-02-20T00:31:49.337Z,72.86
2019-02-20T00:34:20.198Z,72.62
2019-02-20T00:36:51.156Z,72.55
2019-02-20T00:39:22.048Z,72.51
2019-02-20T00:41:52.981Z,72.48
2019-02-20T00:44:41.722Z,72.45
2019-02-20T00:47:30.841Z,72.31
2019-02-20T00:50:01.808Z,72.42
2019-02-20T00:52:34.413Z,73.02
2019-02-20T00:55:08.619Z,73.17
2019-02-20T00:57:39.566Z,73.50
2019-02-20T01:00:12.631Z,73.20
2019-02-20T01:02:43.607Z,73.13
2019-02-20T01:05:15.354Z,73.08
2019-02-20T01:07:46.266Z,72.92
2019-02-20T01:10:17.159Z,72.75
2019-02-20T01:12:48.735Z,72.56
2019-02-20T01:15:19.652Z,72.44
2019-02-20T01:17:50.948Z,72.19
2019-02-20T01:20:21.906Z,72.15
2019-02-20T01:22:59.640Z,71.97
2019-02-20T01:25:25.408Z,71.72
2019-02-20T01:27:56.436Z,71.74
2019-02-20T01:30:27.330Z,71.59
2019-02-20T01:32:58.629Z,71.42
2019-02-20T01:35:29.521Z,71.45
2019-02-20T01:38:00.448Z,71.51
2019-02-20T01:40:31.350Z,71.68
2019-02-20T01:43:02.277Z,71.56
2019-02-20T01:45:33.172Z,71.66
2019-02-20T01:48:04.138Z,71.53
2019-02-20T01:50:35.032Z,71.64
2019-02-20T01:53:10.297Z,71.67
2019-02-20T01:55:38.541Z,71.63
2019-02-20T01:58:09.473Z,71.39
2019-02-20T02:00:40.432Z,71.29
2019-02-20T02:03:11.363Z,71.08
2019-02-20T02:05:43.137Z,71.12
2019-02-20T02:08:14.066Z,71.12
2019-02-20T02:10:44.955Z,71.13
2019-02-20T02:13:15.897Z,71.26
2019-02-20T02:15:46.776Z,71.32
2019-02-20T02:18:17.709Z,71.38
2019-02-20T02:20:48.609Z,71.42
2019-02-20T02:23:20.166Z,71.32
2019-02-20T02:25:51.100Z,71.35
2019-02-20T02:28:22.014Z,71.33
2019-02-20T02:30:52.977Z,71.33
2019-02-20T02:33:24.235Z,71.46
2019-02-20T02:35:55.128Z,71.33
2019-02-20T02:38:26.044Z,71.47
2019-02-20T02:40:56.930Z,71.44
2019-02-20T02:43:27.846Z,71.32
2019-02-20T02:45:58.750Z,71.10
2019-02-20T02:48:29.786Z,71.04
2019-02-20T02:51:00.687Z,71.05
2019-02-20T02:53:31.607Z,70.86
2019-02-20T02:56:02.496Z,70.91
2019-02-20T02:58:33.413Z,71.03
2019-02-20T03:01:04.378Z,71.10
2019-02-20T03:03:35.318Z,71.28
2019-02-20T03:06:07.190Z,71.63
2019-02-20T03:08:38.117Z,71.74
2019-02-20T03:11:09.002Z,71.95
2019-02-20T03:13:39.952Z,72.08
2019-02-20T03:16:10.833Z,71.98
2019-02-20T03:18:41.762Z,71.98
2019-02-20T03:21:12.652Z,72.12
2019-02-20T03:23:43.579Z,72.02
2019-02-20T03:26:14.477Z,71.88
2019-02-20T03:28:45.392Z,71.92
2019-02-20T03:31:16.308Z,71.80
2019-02-20T03:33:47.238Z,71.85
2019-02-20T03:36:18.127Z,71.91
2019-02-20T03:38:49.045Z,71.87
2019-02-20T03:41:20.717Z,71.84
2019-02-20T03:43:51.598Z,71.86
2019-02-20T03:46:22.481Z,72.12
2019-02-20T03:48:53.423Z,71.95
2019-02-20T03:51:24.321Z,71.99
2019-02-20T03:53:55.372Z,71.83
2019-02-20T03:56:26.563Z,71.87
2019-02-20T03:58:57.490Z,72.10
2019-02-20T04:01:28.381Z,72.30
2019-02-20T04:03:59.324Z,72.95
2019-02-20T04:06:30.206Z,72.82
2019-02-20T04:09:01.139Z,73.25
2019-02-20T04:11:32.017Z,73.29
2019-02-20T04:14:02.934Z,73.05
2019-02-20T04:16:33.899Z,72.85
2019-02-20T04:19:04.846Z,72.77
2019-02-20T04:21:35.745Z,72.66
2019-02-20T04:24:06.675Z,72.57
2019-02-20T04:26:38.766Z,72.78
2019-02-20T04:29:09.653Z,72.61
2019-02-20T04:31:40.553Z,72.40
2019-02-20T04:34:11.515Z,72.29
2019-02-20T04:36:42.426Z,72.37
2019-02-20T04:39:13.408Z,73.08
2019-02-20T04:41:44.306Z,73.68
2019-02-20T04:44:15.238Z,73.64
2019-02-20T04:46:46.143Z,74.54
2019-02-20T04:49:17.072Z,75.35
2019-02-20T04:51:47.961Z,76.20
2019-02-20T04:54:18.875Z,76.21
2019-02-20T04:56:49.776Z,76.17
2019-02-20T04:59:20.711Z,76.08
2019-02-20T05:01:51.604Z,76.17
2019-02-20T05:04:22.697Z,75.94
2019-02-20T05:06:54.395Z,76.04
2019-02-20T05:09:25.316Z,76.07
2019-02-20T05:11:56.221Z,75.67
2019-02-20T05:14:27.154Z,75.50
2019-02-20T05:16:58.032Z,75.38
2019-02-20T05:19:29.053Z,75.17
2019-02-20T05:22:00.629Z,74.92
2019-02-20T05:24:31.586Z,74.75
2019-02-20T05:27:02.466Z,74.44
2019-02-20T05:29:33.378Z,74.32
2019-02-20T05:32:04.265Z,73.95
2019-02-20T05:34:35.246Z,73.67
2019-02-20T05:37:06.127Z,73.36
2019-02-20T05:39:37.075Z,73.23
2019-02-20T05:42:07.969Z,73.04
2019-02-20T05:44:38.891Z,72.90
2019-02-20T05:47:09.790Z,72.75
2019-02-20T05:49:40.730Z,72.38
2019-02-20T05:52:11.624Z,72.36
2019-02-20T05:54:42.551Z,72.35
2019-02-20T05:57:13.442Z,72.19
2019-02-20T05:59:44.372Z,72.03
2019-02-20T06:02:15.273Z,72.19
2019-02-20T06:04:46.304Z,72.05
2019-02-20T06:07:17.192Z,71.85
2019-02-20T06:09:48.107Z,71.92
2019-02-20T06:12:18.997Z,72.11
2019-02-20T06:14:49.917Z,71.97
2019-02-20T06:17:20.804Z,71.73
2019-02-20T06:19:51.753Z,71.65
2019-02-20T06:22:22.650Z,71.42
2019-02-20T06:24:53.591Z,71.51
2019-02-20T06:27:24.480Z,71.55
2019-02-20T06:29:55.409Z,71.63
2019-02-20T06:32:26.307Z,71.60
2019-02-20T06:34:57.262Z,71.54
2019-02-20T06:37:28.155Z,71.68
2019-02-20T06:39:59.090Z,71.75
2019-02-20T06:42:29.980Z,71.53
2019-02-20T06:45:00.897Z,71.27
2019-02-20T06:47:31.800Z,71.19
2019-02-20T06:50:02.835Z,71.11
2019-02-20T06:52:33.729Z,71.12
2019-02-20T06:55:06.576Z,70.98
2019-02-20T06:57:37.550Z,70.99
2019-02-20T07:00:11.336Z,70.99
2019-02-20T07:02:42.229Z,70.98
2019-02-20T07:05:30.394Z,70.90
2019-02-20T07:08:25.876Z,70.75
2019-02-20T07:11:03.002Z,70.81
2019-02-20T07:13:36.825Z,70.88
2019-02-20T07:16:28.522Z,70.91
2019-02-20T07:19:04.884Z,70.91
2019-02-20T07:22:12.299Z,70.87
2019-02-20T07:24:52.085Z,70.79
2019-02-20T07:27:34.442Z,70.64
2019-02-20T07:30:11.306Z,70.53
2019-02-20T07:32:42.213Z,70.62
2019-02-20T07:35:13.185Z,70.47
2019-02-20T07:37:44.162Z,70.42
2019-02-20T07:40:15.053Z,70.41
2019-02-20T07:42:45.982Z,70.38
2019-02-20T07:45:16.877Z,70.27
2019-02-20T07:47:47.799Z,70.16
2019-02-20T07:50:18.702Z,70.13
2019-02-20T07:52:49.636Z,70.16
2019-02-20T07:55:20.553Z,70.03
2019-02-20T07:57:51.464Z,70.31
2019-02-20T08:00:22.350Z,70.89
2019-02-20T08:02:53.274Z,71.31
2019-02-20T08:05:24.231Z,72.07
2019-02-20T08:07:55.190Z,72.44
2019-02-20T08:10:26.130Z,72.86
2019-02-20T08:12:57.071Z,73.40
2019-02-20T08:15:27.957Z,73.58
2019-02-20T08:17:58.891Z,73.60
2019-02-20T08:20:29.784Z,73.52
2019-02-20T08:23:00.879Z,73.42
2019-02-20T08:25:31.767Z,72.94
2019-02-20T08:28:02.688Z,72.26
2019-02-20T08:30:33.597Z,71.08
2019-02-20T08:33:04.527Z,70.54
2019-02-20T08:35:35.427Z,69.97
2019-02-20T08:38:06.394Z,68.78
2019-02-20T08:40:37.273Z,68.19
2019-02-20T08:43:08.232Z,67.58
2019-02-20T08:45:39.139Z,66.67
2019-02-20T08:48:10.025Z,66.00
2019-02-20T08:50:40.908Z,65.64
2019-02-20T08:53:11.867Z,65.32
2019-02-20T08:55:42.766Z,65.25
2019-02-20T08:58:13.678Z,65.24
2019-02-20T09:00:44.574Z,64.99
2019-02-20T09:03:15.485Z,64.83
2019-02-20T09:05:46.375Z,64.85
2019-02-20T09:08:17.414Z,64.77
2019-02-20T09:10:48.305Z,64.59
2019-02-20T09:13:19.220Z,64.57
2019-02-20T09:15:50.119Z,64.56
2019-02-20T09:18:21.080Z,64.37
2019-02-20T09:20:51.986Z,64.25
2019-02-20T09:23:22.921Z,64.21
2019-02-20T09:25:53.825Z,64.30
2019-02-20T09:28:24.742Z,64.16
2019-02-20T09:30:55.644Z,64.03
2019-02-20T09:33:26.569Z,64.17
2019-02-20T09:35:57.444Z,63.90
2019-02-20T09:38:28.385Z,63.98
2019-02-20T09:40:59.644Z,63.77
2019-02-20T09:43:30.581Z,63.84
2019-02-20T09:46:01.478Z,63.66
2019-02-20T09:48:32.394Z,63.66
2019-02-20T09:51:03.282Z,63.75
2019-02-20T09:53:34.249Z,63.81
2019-02-20T09:56:05.150Z,63.66
2019-02-20T09:58:36.065Z,63.92
2019-02-20T10:01:06.959Z,63.77
2019-02-20T10:03:37.868Z,63.83
2019-02-20T10:06:08.758Z,63.55
2019-02-20T10:08:39.835Z,63.73
2019-02-20T10:11:11.934Z,63.73
2019-02-20T10:13:42.862Z,63.88
2019-02-20T10:16:13.754Z,63.79
2019-02-20T10:18:44.667Z,63.66
2019-02-20T10:21:17.199Z,63.58
2019-02-20T10:23:48.304Z,63.81
2019-02-20T10:26:19.206Z,63.64
2019-02-20T10:28:50.140Z,63.54
2019-02-20T10:31:21.027Z,63.64
2019-02-20T10:33:52.033Z,63.43
2019-02-20T10:36:22.935Z,63.37
2019-02-20T10:38:54.000Z,63.42
2019-02-20T10:41:25.216Z,63.03
2019-02-20T10:43:56.142Z,63.05
2019-02-20T10:46:27.038Z,62.87
2019-02-20T10:48:57.971Z,62.96
2019-02-20T10:51:28.870Z,63.04
2019-02-20T10:53:59.835Z,62.91
2019-02-20T10:56:30.796Z,62.74
2019-02-20T10:59:01.718Z,62.76
2019-02-20T11:01:32.690Z,62.50
2019-02-20T11:04:03.625Z,62.56
2019-02-20T11:06:34.508Z,62.68
2019-02-20T11:09:06.576Z,62.54
2019-02-20T11:11:37.479Z,62.53
2019-02-20T11:14:08.388Z,62.57
2019-02-20T11:16:39.286Z,62.44
2019-02-20T11:19:10.217Z,62.68
2019-02-20T11:21:41.207Z,62.80
2019-02-20T11:24:12.169Z,62.69
2019-02-20T11:26:52.397Z,62.81
2019-02-20T11:29:15.694Z,62.69
2019-02-20T11:31:46.580Z,62.92
2019-02-20T11:34:17.507Z,62.98
2019-02-20T11:36:49.413Z,63.10
2019-02-20T11:39:20.440Z,63.16
2019-02-20T11:41:51.340Z,63.40
2019-02-20T11:44:22.313Z,63.31
2019-02-20T11:46:53.231Z,63.45
2019-02-20T11:49:24.133Z,63.31
2019-02-20T11:51:55.098Z,63.46
2019-02-20T11:54:26.037Z,63.53
2019-02-20T11:56:56.928Z,63.53
2019-02-20T11:59:27.927Z,63.84
2019-02-20T12:01:58.909Z,63.59
2019-02-20T12:04:29.836Z,63.87
2019-02-20T12:07:00.728Z,63.62
2019-02-20T12:09:31.752Z,63.92
2019-02-20T12:12:02.644Z,63.71
2019-02-20T12:14:33.599Z,63.78
2019-02-20T12:17:04.507Z,63.87
2019-02-20T12:19:35.419Z,63.92
2019-02-20T12:22:06.387Z,64.09
2019-02-20T12:24:37.339Z,64.05
2019-02-20T12:27:08.231Z,64.13
2019-02-20T12:29:39.141Z,63.90
2019-02-20T12:32:10.043Z,64.13
2019-02-20T12:34:40.970Z,64.11
2019-02-20T12:37:11.867Z,64.11
2019-02-20T12:39:42.801Z,64.17
2019-02-20T12:42:13.693Z,64.22
2019-02-20T12:44:44.612Z,64.41
2019-02-20T12:47:15.512Z,64.36
2019-02-20T12:49:46.522Z,64.21
2019-02-20T12:52:17.402Z,64.44
2019-02-20T12:54:48.442Z,64.52
2019-02-20T12:57:19.330Z,64.78
2019-02-20T12:59:50.260Z,64.75
2019-02-20T13:02:21.154Z,64.95
2019-02-20T13:04:52.153Z,64.93
2019-02-20T13:07:23.057Z,65.15
2019-02-20T13:09:54.071Z,65.25
2019-02-20T13:12:25.757Z,65.29
2019-02-20T13:14:56.677Z,65.39
2019-02-20T13:17:27.584Z,65.32
2019-02-20T13:19:58.506Z,65.35
2019-02-20T13:22:29.408Z,65.60
2019-02-20T13:25:00.360Z,65.54
2019-02-20T13:27:31.267Z,65.28
2019-02-20T13:30:02.209Z,65.37
2019-02-20T13:32:33.118Z,65.08
2019-02-20T13:35:04.548Z,64.94
2019-02-20T13:37:35.450Z,64.78
2019-02-20T13:40:09.224Z,64.86
2019-02-20T13:42:40.127Z,64.80
2019-02-20T13:45:11.072Z,64.88
2019-02-20T13:47:41.963Z,64.89
2019-02-20T13:50:13.081Z,64.94
2019-02-20T13:52:51.970Z,64.95
2019-02-20T13:55:17.105Z,65.11
2019-02-20T13:57:47.996Z,65.29
2019-02-20T14:00:18.918Z,65.19
2019-02-20T14:02:49.826Z,64.85
2019-02-20T14:05:20.762Z,64.93
2019-02-20T14:07:51.670Z,65.17
2019-02-20T14:10:22.636Z,65.11
2019-02-20T14:12:53.545Z,64.86
2019-02-20T14:15:24.583Z,64.88
2019-02-20T14:17:55.497Z,64.90
2019-02-20T14:20:26.709Z,65.02
2019-02-20T14:22:57.602Z,65.12
2019-02-20T14:25:28.555Z,65.35
2019-02-20T14:27:59.450Z,65.41
2019-02-20T14:30:30.436Z,65.32
2019-02-20T14:33:01.337Z,65.83
2019-02-20T14:35:32.290Z,65.96
2019-02-20T14:38:03.209Z,66.33
2019-02-20T14:40:34.265Z,66.33
2019-02-20T14:43:05.166Z,66.38
2019-02-20T14:45:36.095Z,66.31
2019-02-20T14:48:07.274Z,66.33
2019-02-20T14:50:38.204Z,66.65
2019-02-20T14:53:09.111Z,66.53
2019-02-20T14:55:40.179Z,66.93
2019-02-20T14:58:11.167Z,66.97
2019-02-20T15:00:42.535Z,66.81
2019-02-20T15:03:13.441Z,66.68
2019-02-20T15:05:44.379Z,67.08
2019-02-20T15:08:15.287Z,67.19
2019-02-20T15:10:46.471Z,67.23
2019-02-20T15:13:17.407Z,67.26
2019-02-20T15:15:48.335Z,66.88
2019-02-20T15:18:19.232Z,67.10
2019-02-20T15:20:50.146Z,67.17
2019-02-20T15:23:21.047Z,67.31
2019-02-20T15:25:52.018Z,67.29
2019-02-20T15:28:23.174Z,67.47
2019-02-20T15:30:54.124Z,67.86
2019-02-20T15:33:25.024Z,67.88
2019-02-20T15:35:55.954Z,67.76
2019-02-20T15:38:26.844Z,68.12
2019-02-20T15:40:57.795Z,68.00
2019-02-20T15:43:28.713Z,68.05
2019-02-20T15:45:59.642Z,68.00
2019-02-20T15:48:30.554Z,68.23
2019-02-20T15:51:01.481Z,68.61
2019-02-20T15:53:32.387Z,68.89
2019-02-20T15:56:03.613Z,68.88
2019-02-20T15:58:34.597Z,69.05
2019-02-20T16:01:08.094Z,69.18
2019-02-20T16:03:39.071Z,69.29
2019-02-20T16:06:10.003Z,69.58
2019-02-20T16:08:41.183Z,69.44
2019-02-20T16:11:12.136Z,69.29
2019-02-20T16:13:43.040Z,69.55
2019-02-20T16:16:14.321Z,69.59
2019-02-20T16:18:45.368Z,69.47
2019-02-20T16:21:16.374Z,69.50
2019-02-20T16:23:47.469Z,69.58
2019-02-20T16:26:18.426Z,70.00
2019-02-20T16:28:49.334Z,70.16
2019-02-20T16:31:20.268Z,70.04
2019-02-20T16:33:51.232Z,70.34
2019-02-20T16:36:23.264Z,70.21
2019-02-20T16:38:54.188Z,70.07
2019-02-20T16:41:25.177Z,70.22
2019-02-20T16:43:56.103Z,70.12
2019-02-20T16:46:36.440Z,70.15
2019-02-20T16:49:10.840Z,70.30
2019-02-20T16:51:41.787Z,70.40
2019-02-20T16:54:12.702Z,70.25
2019-02-20T16:56:43.665Z,70.14
2019-02-20T16:59:14.571Z,70.05
2019-02-20T17:01:45.884Z,69.97
2019-02-20T17:04:16.782Z,69.94
2019-02-20T17:06:47.715Z,69.93
2019-02-20T17:09:18.628Z,69.91
2019-02-20T17:11:49.645Z,69.82
2019-02-20T17:14:20.649Z,69.95
2019-02-20T17:16:51.585Z,69.95
2019-02-20T17:19:22.489Z,69.78
2019-02-20T17:21:53.415Z,69.96
2019-02-20T17:24:24.314Z,70.09
2019-02-20T17:26:55.356Z,70.03
2019-02-20T17:29:26.448Z,70.00
2019-02-20T17:31:57.371Z,69.86
2019-02-20T17:34:28.264Z,69.85
2019-02-20T17:36:59.201Z,69.82
2019-02-20T17:39:30.102Z,69.89
2019-02-20T17:42:01.346Z,70.06
2019-02-20T17:44:32.245Z,70.12
2019-02-20T17:47:03.177Z,70.32
2019-02-20T17:49:34.183Z,70.12
2019-02-20T17:52:05.106Z,70.32
2019-02-20T17:54:36.003Z,70.51
2019-02-20T17:57:07.054Z,70.68
2019-02-20T17:59:37.955Z,70.80
2019-02-20T18:02:08.971Z,70.92
2019-02-20T18:04:39.877Z,70.83
2019-02-20T18:07:10.807Z,71.00
2019-02-20T18:09:41.717Z,70.90
2019-02-20T18:12:12.713Z,71.21
2019-02-20T18:14:43.631Z,71.55
2019-02-20T18:17:14.577Z,71.56
2019-02-20T18:19:45.491Z,71.65
2019-02-20T18:22:16.534Z,71.73
2019-02-20T18:24:47.565Z,71.94
2019-02-20T18:27:18.609Z,71.80
2019-02-20T18:29:49.522Z,72.00
2019-02-20T18:32:20.464Z,72.11
2019-02-20T18:34:51.366Z,71.98
2019-02-20T18:37:22.503Z,71.98
2019-02-20T18:39:53.455Z,72.13
2019-02-20T18:42:24.449Z,72.64
2019-02-20T18:44:55.815Z,72.96
2019-02-20T18:47:26.861Z,72.87
2019-02-20T18:49:57.755Z,73.13
2019-02-20T18:52:28.688Z,73.12
2019-02-20T18:55:05.854Z,73.58
2019-02-20T18:57:32.265Z,73.85
2019-02-20T19:00:03.159Z,74.18
2019-02-20T19:02:34.099Z,74.46
2019-02-20T19:05:06.762Z,74.74
2019-02-20T19:07:37.762Z,74.93
2019-02-20T19:10:11.611Z,74.89
2019-02-20T19:12:51.304Z,74.98
2019-02-20T19:15:25.180Z,75.31
2019-02-20T19:18:08.024Z,74.96
2019-02-20T19:21:03.248Z,75.05
2019-02-20T19:23:48.482Z,75.27
2019-02-20T19:26:22.276Z,75.31
2019-02-20T19:29:27.836Z,75.21
2019-02-20T19:32:21.402Z,74.93
2019-02-20T19:35:01.178Z,75.10
2019-02-20T19:37:43.741Z,75.05
2019-02-20T19:40:17.622Z,74.98
2019-02-20T19:42:54.366Z,75.42
2019-02-20T19:45:30.929Z,75.37
2019-02-20T19:48:13.734Z,75.15
2019-02-20T19:50:56.126Z,75.11
2019-02-20T19:53:38.725Z,75.07
2019-02-20T19:56:27.461Z,74.82
2019-02-20T19:59:16.486Z,74.87
2019-02-20T20:01:52.990Z,74.93
2019-02-20T20:04:29.560Z,74.89
2019-02-20T20:07:15.393Z,74.70
2019-02-20T20:10:13.379Z,74.51
2019-02-20T20:13:02.236Z,74.46
2019-02-20T20:15:53.882Z,74.26
2019-02-20T20:18:36.943Z,74.47
2019-02-20T20:21:16.665Z,74.35
2019-02-20T20:23:53.173Z,74.30
2019-02-20T20:26:35.785Z,74.06
2019-02-20T20:29:32.109Z,74.12
2019-02-20T20:32:08.839Z,74.00
2019-02-20T20:35:00.885Z,73.96
2019-02-20T20:37:37.730Z,73.90
2019-02-20T20:40:40.427Z,73.74
2019-02-20T20:43:14.258Z,73.84
2019-02-20T20:45:48.097Z,73.64
2019-02-20T20:48:36.840Z,73.59
2019-02-20T20:51:13.522Z,73.45
2019-02-20T20:54:22.630Z,73.31
2019-02-20T20:57:08.220Z,73.25
2019-02-20T20:59:44.813Z,73.40
2019-02-20T21:02:21.617Z,73.22
2019-02-20T21:05:01.315Z,73.50
2019-02-20T21:07:46.799Z,73.57
2019-02-20T21:10:40.085Z,73.58
2019-02-20T21:13:19.845Z,73.99
2019-02-20T21:16:16.210Z,74.10
2019-02-20T21:19:21.634Z,74.06
2019-02-20T21:22:26.385Z,74.10
2019-02-20T21:25:33.612Z,74.07
2019-02-20T21:28:22.401Z,74.33
2019-02-20T21:31:05.026Z,74.87
2019-02-20T21:34:12.132Z,74.59
2019-02-20T21:36:54.582Z,74.80
2019-02-20T21:39:37.396Z,75.07
2019-02-20T21:42:35.296Z,74.92
2019-02-20T21:45:18.027Z,75.38
2019-02-20T21:48:08.985Z,75.28
2019-02-20T21:50:45.807Z,75.45
2019-02-20T21:53:19.651Z,75.44
2019-02-20T21:56:14.972Z,75.33
2019-02-20T21:58:58.074Z,75.51
2019-02-20T22:01:44.148Z,75.64
2019-02-20T22:04:40.561Z,75.71
2019-02-20T22:07:29.275Z,75.83
2019-02-20T22:10:05.819Z,76.31
2019-02-20T22:13:02.387Z,76.59
2019-02-20T22:15:36.450Z,76.12
2019-02-20T22:18:32.499Z,76.48
2019-02-20T22:21:15.189Z,76.92
2019-02-20T22:23:57.883Z,76.68
2019-02-20T22:26:46.054Z,77.08
2019-02-20T22:29:37.396Z,76.90
2019-02-20T22:32:11.286Z,76.72
2019-02-20T22:34:50.863Z,76.57
2019-02-20T22:37:30.748Z,76.60
2019-02-20T22:40:07.529Z,76.43
2019-02-20T22:43:14.861Z,76.38
2019-02-20T22:46:00.581Z,76.18
2019-02-20T22:48:46.179Z,76.14
2019-02-20T22:51:42.217Z,76.02
2019-02-20T22:54:24.574Z,75.91
2019-02-20T22:57:26.631Z,75.85
2019-02-20T23:00:35.515Z,75.60
2019-02-20T23:03:12.124Z,75.61
2019-02-20T23:06:14.798Z,75.52
2019-02-20T23:08:48.631Z,75.49
2019-02-20T23:11:34.685Z,75.53
2019-02-20T23:14:08.514Z,75.49
2019-02-20T23:16:39.486Z,75.31
2019-02-20T23:19:10.390Z,75.21
2019-02-20T23:21:41.364Z,75.35
2019-02-20T23:24:12.265Z,75.27
2019-02-20T23:26:43.271Z,75.19
2019-02-20T23:29:14.193Z,75.32
2019-02-20T23:31:45.125Z,75.51
2019-02-20T23:34:16.539Z,75.51
2019-02-20T23:36:47.515Z,75.70
2019-02-20T23:39:18.415Z,75.59
2019-02-20T23:41:49.679Z,75.67
2019-02-20T23:44:20.586Z,75.86
2019-02-20T23:46:51.528Z,75.82
2019-02-20T23:49:22.432Z,76.02
2019-02-20T23:51:53.395Z,76.17
2019-02-20T23:54:24.299Z,75.83
2019-02-20T23:56:55.241Z,76.00
2019-02-20T23:59:26.237Z,76.02
